createdAt,value
2023-01-20T00:01:12.222Z,8.43
2023-01-20T00:03:41.145Z,7.80
2023-01-20T00:06:10.150Z,8.40
2023-01-20T00:08:38.741Z,8.67
2023-01-20T00:11:07.912Z,8.63
2023-01-20T00:13:38.323Z,8.67
2023-01-20T00:16:07.761Z,9.10
2023-01-20T00:18:36.664Z,8.07
2023-01-20T00:21:05.604Z,8.90
2023-01-20T00:23:34.482Z,8.50
2023-01-20T00:26:05.269Z,8.17
2023-01-20T00:28:33.904Z,8.37
2023-01-20T00:31:12.941Z,8.27
2023-01-20T00:33:41.515Z,8.43
2023-01-20T00:36:10.622Z,8.70
2023-01-20T00:38:39.199Z,8.80
2023-01-20T00:41:08.115Z,8.27
2023-01-20T00:43:37.016Z,9.37
2023-01-20T00:46:06.104Z,9.37
2023-01-20T00:48:36.075Z,7.77
2023-01-20T00:51:05.530Z,8.23
2023-01-20T00:53:34.261Z,8.50
2023-01-20T00:56:02.786Z,9.27
2023-01-20T00:58:31.390Z,9.07
2023-01-20T01:01:00.192Z,9.53
2023-01-20T01:03:29.160Z,9.47
2023-01-20T01:06:07.972Z,10.30
2023-01-20T01:08:36.972Z,10.40
2023-01-20T01:11:06.005Z,8.97
2023-01-20T01:13:34.958Z,9.77
2023-01-20T01:16:03.616Z,9.80
2023-01-20T01:18:32.319Z,9.47
2023-01-20T01:21:00.882Z,9.83
2023-01-20T01:23:30.804Z,9.40
2023-01-20T01:25:59.399Z,9.53
2023-01-20T01:28:28.235Z,9.33
2023-01-20T01:30:56.811Z,9.57
2023-01-20T01:33:25.365Z,10.00
2023-01-20T01:35:57.499Z,9.57
2023-01-20T01:38:26.155Z,9.47
2023-01-20T01:40:56.540Z,10.77
2023-01-20T01:43:25.932Z,9.53
2023-01-20T01:45:54.836Z,9.83
2023-01-20T01:48:24.209Z,9.70
2023-01-20T01:50:55.095Z,10.47
2023-01-20T01:53:24.207Z,8.57
2023-01-20T01:55:55.575Z,9.83
2023-01-20T01:58:28.850Z,9.67
2023-01-20T02:00:57.487Z,9.40
2023-01-20T02:03:26.471Z,9.50
2023-01-20T02:05:56.771Z,10.07
2023-01-20T02:08:26.756Z,9.97
2023-01-20T02:10:55.358Z,10.17
2023-01-20T02:13:24.004Z,9.63
2023-01-20T02:15:58.329Z,10.23
2023-01-20T02:18:33.161Z,9.67
2023-01-20T02:21:12.576Z,10.27
2023-01-20T02:23:53.605Z,9.57
2023-01-20T02:26:35.010Z,9.97
2023-01-20T02:29:21.045Z,10.03
2023-01-20T02:32:07.763Z,9.37
2023-01-20T02:34:39.282Z,9.80
2023-01-20T02:37:10.593Z,9.27
2023-01-20T02:39:42.392Z,10.57
2023-01-20T02:42:12.433Z,10.10
2023-01-20T02:44:43.446Z,9.80
2023-01-20T02:47:15.205Z,10.17
2023-01-20T02:49:47.997Z,9.87
2023-01-20T02:52:18.691Z,9.93
2023-01-20T02:54:49.694Z,9.33
2023-01-20T02:57:20.254Z,9.90
2023-01-20T02:59:52.058Z,9.57
2023-01-20T03:02:22.980Z,9.80
2023-01-20T03:04:53.236Z,9.97
2023-01-20T03:07:23.548Z,10.10
2023-01-20T03:09:53.783Z,10.10
2023-01-20T03:12:26.101Z,11.43
2023-01-20T03:14:54.752Z,9.93
2023-01-20T03:17:25.092Z,10.40
2023-01-20T03:19:53.765Z,10.00
2023-01-20T03:22:22.415Z,9.93
2023-01-20T03:24:51.073Z,9.27
2023-01-20T03:27:19.687Z,10.03
2023-01-20T03:29:48.269Z,9.93
2023-01-20T03:32:16.915Z,10.07
2023-01-20T03:34:46.868Z,9.83
2023-01-20T03:37:16.027Z,9.20
2023-01-20T03:39:44.651Z,9.23
2023-01-20T03:42:15.666Z,8.47
2023-01-20T03:44:48.732Z,9.00
2023-01-20T03:47:20.323Z,9.07
2023-01-20T03:49:54.186Z,8.17
2023-01-20T03:52:47.926Z,8.23
2023-01-20T03:55:17.581Z,9.60
2023-01-20T03:57:49.019Z,8.33
2023-01-20T04:00:18.344Z,8.53
2023-01-20T04:02:47.142Z,8.70
2023-01-20T04:05:17.812Z,9.17
2023-01-20T04:07:47.078Z,8.33
2023-01-20T04:10:17.078Z,8.07
2023-01-20T04:12:45.668Z,8.20
2023-01-20T04:15:14.853Z,8.23
2023-01-20T04:17:43.653Z,7.70
2023-01-20T04:20:14.760Z,7.80
2023-01-20T04:22:49.403Z,7.37
2023-01-20T04:25:22.310Z,7.73
2023-01-20T04:27:50.859Z,7.53
2023-01-20T04:30:19.628Z,7.73
2023-01-20T04:32:48.268Z,7.53
2023-01-20T04:35:17.764Z,7.53
2023-01-20T04:37:47.692Z,7.47
2023-01-20T04:40:16.489Z,7.10
2023-01-20T04:42:45.090Z,7.40
2023-01-20T04:45:16.698Z,7.73
2023-01-20T04:47:46.057Z,7.50
2023-01-20T04:50:15.336Z,6.93
2023-01-20T04:52:44.286Z,7.47
2023-01-20T04:55:15.028Z,8.00
2023-01-20T04:57:43.767Z,8.20
2023-01-20T05:00:18.500Z,8.17
2023-01-20T05:02:47.337Z,8.57
2023-01-20T05:05:16.233Z,8.50
2023-01-20T05:07:44.935Z,8.77
2023-01-20T05:10:14.982Z,9.10
2023-01-20T05:12:43.516Z,9.87
2023-01-20T05:15:12.536Z,9.47
2023-01-20T05:17:41.190Z,8.97
2023-01-20T05:20:10.515Z,9.77
2023-01-20T05:22:39.323Z,9.40
2023-01-20T05:25:08.293Z,9.07
2023-01-20T05:27:38.779Z,9.50
2023-01-20T05:30:08.200Z,9.53
2023-01-20T05:32:36.767Z,9.23
2023-01-20T05:35:05.530Z,9.23
2023-01-20T05:37:34.130Z,9.43
2023-01-20T05:40:02.701Z,8.90
2023-01-20T05:42:31.287Z,8.87
2023-01-20T05:45:01.201Z,9.57
2023-01-20T05:47:30.132Z,10.73
2023-01-20T05:49:58.780Z,9.60
2023-01-20T05:52:27.362Z,9.03
2023-01-20T05:54:55.907Z,10.23
2023-01-20T05:57:25.466Z,9.10
2023-01-20T05:59:55.602Z,9.73
2023-01-20T06:02:25.517Z,9.33
2023-01-20T06:04:55.966Z,9.63
2023-01-20T06:07:24.598Z,9.17
2023-01-20T06:09:53.197Z,9.33
2023-01-20T06:12:21.817Z,9.17
2023-01-20T06:14:50.357Z,10.17
2023-01-20T06:17:19.032Z,10.23
2023-01-20T06:19:48.929Z,10.63
2023-01-20T06:22:19.558Z,9.03
2023-01-20T06:24:48.161Z,10.17
2023-01-20T06:27:16.803Z,10.13
2023-01-20T06:29:45.414Z,9.83
2023-01-20T06:32:14.002Z,9.97
2023-01-20T06:34:42.540Z,9.43
2023-01-20T06:37:12.434Z,9.77
2023-01-20T06:39:41.030Z,9.40
2023-01-20T06:42:11.484Z,9.17
2023-01-20T06:44:41.116Z,8.70
2023-01-20T06:47:09.804Z,9.10
2023-01-20T06:49:38.395Z,9.67
2023-01-20T06:52:08.239Z,8.60
2023-01-20T06:54:38.163Z,10.27
2023-01-20T06:57:21.881Z,8.43
2023-01-20T06:59:50.460Z,9.03
2023-01-20T07:02:19.034Z,8.73
2023-01-20T07:04:47.622Z,8.77
2023-01-20T07:07:16.245Z,8.40
2023-01-20T07:09:46.183Z,8.70
2023-01-20T07:12:14.730Z,8.13
2023-01-20T07:14:43.338Z,8.57
2023-01-20T07:17:13.490Z,8.23
2023-01-20T07:19:42.024Z,8.50
2023-01-20T07:22:10.592Z,8.00
2023-01-20T07:24:39.197Z,8.37
2023-01-20T07:27:09.154Z,9.63
2023-01-20T07:29:37.913Z,8.77
2023-01-20T07:32:06.832Z,8.30
2023-01-20T07:34:35.500Z,8.80
2023-01-20T07:37:04.119Z,8.37
2023-01-20T07:39:32.674Z,8.33
2023-01-20T07:42:01.291Z,8.30
2023-01-20T07:44:31.196Z,8.40
2023-01-20T07:46:59.788Z,7.40
2023-01-20T07:49:29.158Z,7.97
2023-01-20T07:51:57.678Z,8.83
2023-01-20T07:54:26.267Z,8.13
2023-01-20T07:56:54.948Z,8.13
2023-01-20T07:59:23.529Z,7.80
2023-01-20T08:01:53.532Z,7.87
2023-01-20T08:04:22.081Z,8.30
2023-01-20T08:06:50.649Z,8.20
2023-01-20T08:09:19.784Z,6.97
2023-01-20T08:11:48.356Z,7.97
2023-01-20T08:14:16.945Z,7.90
2023-01-20T08:16:45.557Z,7.97
2023-01-20T08:19:15.437Z,7.80
2023-01-20T08:21:44.009Z,7.17
2023-01-20T08:24:12.741Z,7.03
2023-01-20T08:26:41.413Z,6.93
2023-01-20T08:29:10.993Z,7.00
2023-01-20T08:31:39.684Z,7.40
2023-01-20T08:34:08.405Z,7.03
2023-01-20T08:36:39.033Z,7.10
2023-01-20T08:39:08.813Z,6.87
2023-01-20T08:41:38.513Z,7.40
2023-01-20T08:44:08.116Z,7.47
2023-01-20T08:46:39.791Z,7.40
2023-01-20T08:49:09.904Z,7.50
2023-01-20T08:51:39.876Z,7.30
2023-01-20T08:54:08.595Z,6.90
2023-01-20T08:56:37.223Z,7.23
2023-01-20T08:59:06.125Z,7.27
2023-01-20T09:01:37.737Z,7.80
2023-01-20T09:04:07.618Z,6.40
2023-01-20T09:06:41.494Z,5.83
2023-01-20T09:09:10.180Z,6.60
2023-01-20T09:11:38.843Z,6.70
2023-01-20T09:14:07.443Z,6.10
2023-01-20T09:16:36.001Z,6.40
2023-01-20T09:19:04.704Z,6.87
2023-01-20T09:21:33.323Z,6.20
2023-01-20T09:24:03.239Z,5.93
2023-01-20T09:26:38.599Z,6.53
2023-01-20T09:29:10.342Z,6.37
2023-01-20T09:31:39.792Z,6.43
2023-01-20T09:34:08.694Z,6.23
2023-01-20T09:36:37.227Z,6.30
2023-01-20T09:39:24.956Z,6.37
2023-01-20T09:42:11.357Z,6.10
2023-01-20T09:44:44.169Z,5.97
2023-01-20T09:47:30.978Z,5.90
2023-01-20T09:50:47.605Z,6.30
2023-01-20T09:53:25.540Z,5.73
2023-01-20T09:55:56.593Z,6.20
2023-01-20T09:58:29.571Z,5.87
2023-01-20T10:01:01.457Z,6.00
2023-01-20T10:03:36.887Z,6.83
2023-01-20T10:06:08.640Z,5.97
2023-01-20T10:08:40.164Z,5.83
2023-01-20T10:11:11.852Z,5.77
2023-01-20T10:13:47.263Z,6.50
2023-01-20T10:16:22.193Z,5.57
2023-01-20T10:18:53.084Z,6.17
2023-01-20T10:21:23.528Z,5.93
2023-01-20T10:23:53.370Z,5.50
2023-01-20T10:26:24.381Z,6.40
2023-01-20T10:28:54.794Z,5.93
2023-01-20T10:31:25.596Z,6.30
2023-01-20T10:33:56.074Z,6.03
2023-01-20T10:36:27.507Z,6.30
2023-01-20T10:38:57.976Z,5.77
2023-01-20T10:41:33.790Z,5.60
2023-01-20T10:44:02.342Z,5.87
2023-01-20T10:46:40.465Z,5.63
2023-01-20T10:49:19.077Z,5.63
2023-01-20T10:51:52.617Z,4.80
2023-01-20T10:54:26.499Z,5.53
2023-01-20T10:56:57.357Z,5.10
2023-01-20T10:59:29.293Z,5.03
2023-01-20T11:02:11.456Z,5.10
2023-01-20T11:04:41.132Z,4.70
2023-01-20T11:07:14.629Z,4.13
2023-01-20T11:09:43.265Z,5.27
2023-01-20T11:12:14.889Z,4.53
2023-01-20T11:14:43.533Z,4.40
2023-01-20T11:17:15.628Z,4.73
2023-01-20T11:19:48.308Z,4.47
2023-01-20T11:22:20.746Z,4.83
2023-01-20T11:24:50.029Z,4.00
2023-01-20T11:27:21.762Z,4.20
2023-01-20T11:29:51.636Z,4.13
2023-01-20T11:32:27.237Z,4.30
2023-01-20T11:34:55.913Z,4.37
2023-01-20T11:37:26.546Z,4.20
2023-01-20T11:40:00.129Z,4.53
2023-01-20T11:42:30.809Z,4.53
2023-01-20T11:45:15.538Z,4.60
2023-01-20T11:48:00.295Z,3.90
2023-01-20T11:50:36.688Z,4.00
2023-01-20T11:53:17.857Z,3.80
2023-01-20T11:55:51.107Z,4.40
2023-01-20T11:58:21.939Z,3.53
2023-01-20T12:00:52.715Z,3.90
2023-01-20T12:03:29.419Z,3.83
2023-01-20T12:06:00.563Z,3.53
2023-01-20T12:08:30.888Z,3.53
2023-01-20T12:11:01.975Z,3.53
2023-01-20T12:13:55.589Z,3.57
2023-01-20T12:16:25.805Z,3.50
2023-01-20T12:19:02.178Z,3.67
2023-01-20T12:21:35.948Z,3.50
2023-01-20T12:24:09.377Z,3.43
2023-01-20T12:26:38.118Z,3.50
2023-01-20T12:29:13.777Z,2.93
2023-01-20T12:31:43.349Z,3.27
2023-01-20T12:34:13.850Z,3.33
2023-01-20T12:37:00.171Z,2.87
2023-01-20T12:39:40.553Z,2.83
2023-01-20T12:42:23.961Z,2.43
2023-01-20T12:44:55.596Z,2.50
2023-01-20T12:47:32.577Z,2.50
2023-01-20T12:50:07.995Z,2.47
2023-01-20T12:52:42.618Z,2.10
2023-01-20T12:55:17.777Z,2.00
2023-01-20T12:57:53.861Z,2.00
2023-01-20T13:00:42.142Z,1.80
2023-01-20T13:03:29.205Z,2.30
2023-01-20T13:06:07.931Z,2.33
2023-01-20T13:08:42.224Z,2.40
2023-01-20T13:11:18.161Z,2.40
2023-01-20T13:13:57.604Z,2.70
2023-01-20T13:16:33.069Z,2.37
2023-01-20T13:19:06.591Z,2.57
2023-01-20T13:21:36.122Z,2.13
2023-01-20T13:24:06.506Z,2.33
2023-01-20T13:26:36.182Z,2.27
2023-01-20T13:29:04.816Z,2.57
2023-01-20T13:31:45.493Z,2.67
2023-01-20T13:34:33.825Z,2.60
2023-01-20T13:37:25.886Z,2.80
2023-01-20T13:39:55.441Z,3.07
2023-01-20T13:42:31.403Z,3.07
2023-01-20T13:45:18.617Z,3.37
2023-01-20T13:48:03.122Z,3.63
2023-01-20T13:50:33.660Z,3.30
2023-01-20T13:53:23.024Z,3.97
2023-01-20T13:55:53.204Z,4.60
2023-01-20T13:58:22.457Z,4.60
2023-01-20T14:00:51.888Z,4.87
2023-01-20T14:03:23.868Z,4.70
2023-01-20T14:05:53.480Z,4.80
2023-01-20T14:08:22.844Z,5.07
2023-01-20T14:10:51.375Z,4.70
2023-01-20T14:13:21.099Z,4.57
2023-01-20T14:15:51.235Z,4.40
2023-01-20T14:18:21.122Z,5.27
2023-01-20T14:21:03.490Z,5.80
2023-01-20T14:23:34.203Z,5.87
2023-01-20T14:26:04.507Z,5.50
2023-01-20T14:28:33.601Z,6.67
2023-01-20T14:31:18.743Z,6.33
2023-01-20T14:33:49.254Z,6.17
2023-01-20T14:36:20.807Z,6.50
2023-01-20T14:38:58.169Z,6.90
2023-01-20T14:41:28.229Z,6.83
2023-01-20T14:43:57.010Z,7.50
2023-01-20T14:46:26.157Z,6.60
2023-01-20T14:48:55.597Z,7.00
2023-01-20T14:51:25.725Z,7.23
2023-01-20T14:54:12.871Z,6.47
2023-01-20T14:56:41.462Z,6.50
2023-01-20T14:59:19.962Z,7.00
2023-01-20T15:01:52.791Z,7.30
2023-01-20T15:04:21.499Z,6.83
2023-01-20T15:06:55.221Z,6.97
2023-01-20T15:09:27.499Z,6.63
2023-01-20T15:12:10.998Z,7.40
2023-01-20T15:14:40.864Z,6.93
2023-01-20T15:17:10.417Z,7.23
2023-01-20T15:19:39.038Z,7.70
2023-01-20T15:22:22.213Z,8.00
2023-01-20T15:24:51.391Z,8.17
2023-01-20T15:27:24.654Z,7.97
2023-01-20T15:30:13.043Z,8.00
2023-01-20T15:32:42.458Z,8.23
2023-01-20T15:35:13.966Z,8.40
2023-01-20T15:37:44.230Z,8.13
2023-01-20T15:40:17.247Z,8.10
2023-01-20T15:42:46.227Z,8.90
2023-01-20T15:45:15.651Z,8.83
2023-01-20T15:47:44.933Z,8.33
2023-01-20T15:50:20.777Z,8.83
2023-01-20T15:52:51.044Z,8.63
2023-01-20T15:55:20.216Z,8.33
2023-01-20T15:57:51.499Z,8.10
2023-01-20T16:00:21.193Z,8.63
2023-01-20T16:02:49.991Z,8.57
2023-01-20T16:05:18.623Z,8.30
2023-01-20T16:07:49.472Z,8.53
2023-01-20T16:10:20.341Z,8.27
2023-01-20T16:12:49.356Z,8.13
2023-01-20T16:15:18.767Z,8.30
2023-01-20T16:17:47.365Z,9.30
2023-01-20T16:20:20.644Z,8.77
2023-01-20T16:22:49.249Z,9.43
2023-01-20T16:25:18.194Z,9.23
2023-01-20T16:27:48.168Z,10.13
2023-01-20T16:30:18.312Z,10.07
2023-01-20T16:32:47.177Z,10.30
2023-01-20T16:35:15.862Z,10.23
2023-01-20T16:37:44.959Z,10.97
2023-01-20T16:40:14.915Z,10.97
2023-01-20T16:42:43.695Z,11.00
2023-01-20T16:45:23.022Z,10.90
2023-01-20T16:47:51.659Z,10.63
2023-01-20T16:50:20.480Z,11.40
2023-01-20T16:52:49.307Z,11.23
2023-01-20T16:55:17.867Z,10.83
2023-01-20T16:57:46.444Z,11.13
2023-01-20T17:00:18.637Z,10.43
2023-01-20T17:02:52.390Z,11.17
2023-01-20T17:05:22.563Z,11.67
2023-01-20T17:07:51.444Z,11.30
2023-01-20T17:10:20.683Z,11.13
2023-01-20T17:12:49.381Z,10.23
2023-01-20T17:15:18.124Z,10.63
2023-01-20T17:17:49.486Z,10.87
2023-01-20T17:20:19.629Z,11.53
2023-01-20T17:22:48.638Z,11.37
2023-01-20T17:25:18.106Z,11.43
2023-01-20T17:27:46.906Z,11.07
2023-01-20T17:30:16.546Z,10.77
2023-01-20T17:32:48.201Z,10.80
2023-01-20T17:35:17.242Z,10.30
2023-01-20T17:37:47.174Z,10.67
2023-01-20T17:40:16.997Z,10.90
2023-01-20T17:42:46.317Z,10.40
2023-01-20T17:45:15.214Z,10.73
2023-01-20T17:47:43.831Z,12.07
2023-01-20T17:50:13.010Z,11.73
2023-01-20T17:52:41.649Z,11.30
2023-01-20T17:55:12.139Z,11.63
2023-01-20T17:57:40.769Z,11.13
2023-01-20T18:00:10.090Z,11.17
2023-01-20T18:02:38.667Z,11.77
2023-01-20T18:05:07.566Z,11.90
2023-01-20T18:07:36.108Z,12.63
2023-01-20T18:10:04.672Z,12.80
2023-01-20T18:12:34.997Z,13.40
2023-01-20T18:15:04.131Z,13.90
2023-01-20T18:17:34.235Z,13.57
2023-01-20T18:20:03.003Z,12.07
2023-01-20T18:22:31.650Z,10.67
2023-01-20T18:25:00.228Z,10.37
2023-01-20T18:27:28.868Z,10.03
2023-01-20T18:29:58.807Z,9.30
2023-01-20T18:32:27.532Z,9.40
2023-01-20T18:34:56.246Z,8.57
2023-01-20T18:37:24.837Z,8.90
2023-01-20T18:39:53.415Z,9.40
2023-01-20T18:42:22.035Z,9.50
2023-01-20T18:44:50.624Z,8.93
2023-01-20T18:47:20.734Z,9.30
2023-01-20T18:49:49.308Z,8.90
2023-01-20T18:52:18.775Z,8.83
2023-01-20T18:54:47.351Z,8.40
2023-01-20T18:57:15.983Z,8.23
2023-01-20T18:59:44.581Z,8.30
2023-01-20T19:02:13.415Z,7.47
2023-01-20T19:04:43.378Z,8.00
2023-01-20T19:07:11.938Z,7.60
2023-01-20T19:09:40.472Z,8.73
2023-01-20T19:12:09.215Z,7.43
2023-01-20T19:14:37.885Z,8.50
2023-01-20T19:17:06.413Z,8.27
2023-01-20T19:19:35.107Z,9.17
2023-01-20T19:22:05.080Z,8.80
2023-01-20T19:24:33.683Z,8.47
2023-01-20T19:27:02.969Z,9.50
2023-01-20T19:29:31.538Z,8.20
2023-01-20T19:32:00.308Z,8.80
2023-01-20T19:34:29.010Z,8.63
2023-01-20T19:36:58.754Z,8.37
2023-01-20T19:39:28.770Z,8.87
2023-01-20T19:41:57.289Z,8.70
2023-01-20T19:44:27.628Z,8.77
2023-01-20T19:46:58.770Z,8.67
2023-01-20T19:49:27.356Z,8.70
2023-01-20T19:51:55.915Z,8.33
2023-01-20T19:54:28.417Z,8.93
2023-01-20T19:56:58.314Z,9.37
2023-01-20T19:59:26.921Z,9.27
2023-01-20T20:01:55.612Z,9.07
2023-01-20T20:04:25.449Z,9.03
2023-01-20T20:06:54.088Z,9.00
2023-01-20T20:09:26.139Z,9.10
2023-01-20T20:11:55.933Z,9.23
2023-01-20T20:14:27.204Z,9.07
2023-01-20T20:16:55.796Z,9.80
2023-01-20T20:19:24.391Z,10.07
2023-01-20T20:21:53.757Z,9.30
2023-01-20T20:24:22.321Z,9.17
2023-01-20T20:26:50.927Z,8.63
2023-01-20T20:29:20.445Z,8.83
2023-01-20T20:31:50.439Z,8.50
2023-01-20T20:34:19.958Z,8.87
2023-01-20T20:36:48.565Z,8.80
2023-01-20T20:39:18.586Z,9.03
2023-01-20T20:41:47.382Z,8.73
2023-01-20T20:44:16.449Z,8.30
2023-01-20T20:46:45.091Z,7.60
2023-01-20T20:49:16.581Z,7.63
2023-01-20T20:51:45.220Z,8.93
2023-01-20T20:54:16.802Z,8.33
2023-01-20T20:56:45.577Z,6.97
2023-01-20T20:59:14.201Z,7.73
2023-01-20T21:01:42.908Z,7.87
2023-01-20T21:04:11.528Z,7.93
2023-01-20T21:06:41.464Z,7.53
2023-01-20T21:09:10.282Z,7.90
2023-01-20T21:11:39.699Z,7.97
2023-01-20T21:14:09.432Z,8.93
2023-01-20T21:16:38.081Z,9.23
2023-01-20T21:19:06.649Z,9.50
2023-01-20T21:21:35.326Z,11.97
2023-01-20T21:24:09.882Z,12.47
2023-01-20T21:26:38.573Z,11.60
2023-01-20T21:29:07.329Z,13.13
2023-01-20T21:31:35.966Z,12.77
2023-01-20T21:34:04.514Z,13.03
2023-01-20T21:36:34.509Z,12.70
2023-01-20T21:39:05.316Z,13.53
2023-01-20T21:41:33.944Z,12.70
2023-01-20T21:44:20.456Z,12.53
2023-01-20T21:46:49.478Z,13.40
2023-01-20T21:49:35.972Z,12.50
2023-01-20T21:52:22.477Z,11.70
2023-01-20T21:54:52.429Z,11.87
2023-01-20T21:57:22.036Z,13.20
2023-01-20T21:59:50.639Z,12.20
2023-01-20T22:02:19.465Z,12.37
2023-01-20T22:04:48.245Z,11.67
2023-01-20T22:07:17.437Z,13.07
2023-01-20T22:09:45.988Z,12.43
2023-01-20T22:12:15.985Z,12.20
2023-01-20T22:14:44.615Z,11.87
2023-01-20T22:17:13.797Z,12.23
2023-01-20T22:19:43.850Z,11.20
2023-01-20T22:22:14.987Z,11.97
2023-01-20T22:24:43.893Z,11.30
2023-01-20T22:27:12.478Z,12.00
2023-01-20T22:29:42.431Z,11.27
2023-01-20T22:32:11.061Z,11.77
2023-01-20T22:34:39.756Z,12.27
2023-01-20T22:37:08.408Z,12.80
2023-01-20T22:39:37.004Z,13.00
2023-01-20T22:42:05.685Z,11.80
2023-01-20T22:44:34.224Z,12.10
2023-01-20T22:47:05.720Z,12.80
2023-01-20T22:49:34.335Z,12.50
2023-01-20T22:52:02.987Z,14.07
2023-01-20T22:54:31.672Z,12.20
2023-01-20T22:57:00.414Z,13.47
2023-01-20T22:59:28.946Z,12.50
2023-01-20T23:01:57.649Z,13.53
2023-01-20T23:04:27.906Z,14.10
2023-01-20T23:06:56.540Z,13.93
2023-01-20T23:09:25.161Z,14.53
2023-01-20T23:11:53.836Z,13.80
2023-01-20T23:14:42.484Z,13.50
2023-01-20T23:17:11.065Z,14.40
2023-01-20T23:19:40.961Z,14.63
2023-01-20T23:22:09.536Z,13.10
2023-01-20T23:24:38.200Z,13.23
2023-01-20T23:27:06.822Z,14.37
2023-01-20T23:29:35.433Z,12.73
2023-01-20T23:32:04.217Z,13.60
2023-01-20T23:34:32.750Z,13.33
2023-01-20T23:37:02.672Z,13.17
2023-01-20T23:39:31.316Z,14.10
2023-01-20T23:41:59.927Z,12.83
2023-01-20T23:44:28.516Z,12.93
2023-01-20T23:46:57.208Z,13.27
2023-01-20T23:49:25.770Z,13.73
2023-01-20T23:51:54.432Z,13.57
2023-01-20T23:54:24.403Z,12.43
2023-01-20T23:56:52.988Z,12.77
2023-01-20T23:59:21.611Z,11.90
